createdAt,value
2022-12-28T00:00:28.000Z,0.74
2022-12-28T00:01:30.000Z,0.69
2022-12-28T00:02:27.000Z,0.76
2022-12-28T00:03:27.000Z,0.75
2022-12-28T00:04:27.000Z,0.71
2022-12-28T00:05:28.000Z,0.77
2022-12-28T00:06:28.000Z,0.75
2022-12-28T00:07:28.000Z,0.73
2022-12-28T00:08:28.000Z,0.74
2022-12-28T00:09:28.000Z,0.81
2022-12-28T00:10:28.000Z,0.85
2022-12-28T00:11:27.000Z,0.80
2022-12-28T00:12:28.000Z,0.74
2022-12-28T00:13:29.000Z,0.68
2022-12-28T00:14:27.000Z,0.77
2022-12-28T00:15:27.000Z,0.82
2022-12-28T00:16:33.000Z,0.83
2022-12-28T00:17:27.000Z,0.82
2022-12-28T00:18:27.000Z,0.89
2022-12-28T00:19:27.000Z,0.84
2022-12-28T00:20:27.000Z,0.80
2022-12-28T00:21:28.000Z,0.90
2022-12-28T00:22:27.000Z,0.84
2022-12-28T00:23:28.000Z,0.85
2022-12-28T00:24:27.000Z,0.87
2022-12-28T00:25:27.000Z,0.93
2022-12-28T00:26:30.000Z,0.88
2022-12-28T00:27:27.000Z,0.85
2022-12-28T00:28:27.000Z,0.87
2022-12-28T00:29:27.000Z,0.93
2022-12-28T00:30:27.000Z,0.94
2022-12-28T00:31:27.000Z,0.94
2022-12-28T00:32:28.000Z,0.90
2022-12-28T00:33:28.000Z,0.90
2022-12-28T00:34:27.000Z,0.94
2022-12-28T00:35:27.000Z,0.91
2022-12-28T00:36:28.000Z,1.00
2022-12-28T00:37:28.000Z,1.06
2022-12-28T00:38:29.000Z,0.96
2022-12-28T00:39:28.000Z,0.96
2022-12-28T00:40:27.000Z,0.97
2022-12-28T00:41:28.000Z,1.05
2022-12-28T00:42:27.000Z,1.00
2022-12-28T00:43:28.000Z,1.02
2022-12-28T00:44:28.000Z,1.01
2022-12-28T00:45:27.000Z,1.01
2022-12-28T00:46:27.000Z,0.97
2022-12-28T00:47:27.000Z,0.96
2022-12-28T00:48:28.000Z,1.03
2022-12-28T00:49:27.000Z,1.04
2022-12-28T00:50:28.000Z,0.96
2022-12-28T00:51:27.000Z,1.02
2022-12-28T00:52:27.000Z,1.01
2022-12-28T00:53:28.000Z,1.08
2022-12-28T00:54:27.000Z,1.02
2022-12-28T00:55:27.000Z,1.09
2022-12-28T00:56:28.000Z,1.16
2022-12-28T00:57:29.000Z,1.13
2022-12-28T00:58:27.000Z,1.10
2022-12-28T00:59:27.000Z,1.12
2022-12-28T01:00:29.000Z,1.11
2022-12-28T01:01:28.000Z,1.06
2022-12-28T01:02:27.000Z,1.13
2022-12-28T01:03:28.000Z,1.13
2022-12-28T01:04:28.000Z,1.17
2022-12-28T01:05:27.000Z,1.14
2022-12-28T01:06:28.000Z,1.08
2022-12-28T01:07:27.000Z,1.09
2022-12-28T01:08:27.000Z,1.05
2022-12-28T01:09:27.000Z,1.19
2022-12-28T01:10:27.000Z,1.14
2022-12-28T01:11:29.000Z,1.15
2022-12-28T01:12:28.000Z,1.08
2022-12-28T01:13:27.000Z,1.05
2022-12-28T01:14:27.000Z,1.09
2022-12-28T01:15:27.000Z,1.15
2022-12-28T01:16:31.000Z,1.10
2022-12-28T01:17:28.000Z,1.13
2022-12-28T01:18:27.000Z,1.07
2022-12-28T01:19:28.000Z,1.07
2022-12-28T01:20:28.000Z,1.13
2022-12-28T01:21:30.000Z,1.10
2022-12-28T01:22:27.000Z,1.13
2022-12-28T01:23:27.000Z,1.23
2022-12-28T01:24:27.000Z,1.25
2022-12-28T01:25:27.000Z,1.23
2022-12-28T01:26:28.000Z,1.22
2022-12-28T01:27:27.000Z,1.22
2022-12-28T01:28:28.000Z,1.24
2022-12-28T01:29:27.000Z,1.23
2022-12-28T01:30:29.000Z,1.22
2022-12-28T01:31:27.000Z,1.22
2022-12-28T01:32:28.000Z,1.28
2022-12-28T01:33:27.000Z,1.26
2022-12-28T01:34:27.000Z,1.24
2022-12-28T01:35:27.000Z,1.29
2022-12-28T01:36:30.000Z,1.31
2022-12-28T01:37:27.000Z,1.35
2022-12-28T01:38:27.000Z,1.31
2022-12-28T01:39:27.000Z,1.38
2022-12-28T01:40:27.000Z,1.37
2022-12-28T01:41:28.000Z,1.35
2022-12-28T01:42:27.000Z,1.34
2022-12-28T01:43:37.000Z,1.44
2022-12-28T01:44:37.000Z,1.32
2022-12-28T01:45:27.000Z,1.32
2022-12-28T01:46:36.000Z,1.32
2022-12-28T01:47:33.000Z,1.33
2022-12-28T01:48:28.000Z,1.30
2022-12-28T01:49:37.000Z,1.27
2022-12-28T01:50:27.000Z,1.31
2022-12-28T01:51:32.000Z,1.37
2022-12-28T01:52:37.000Z,1.28
2022-12-28T01:53:27.000Z,1.27
2022-12-28T01:54:32.000Z,1.24
2022-12-28T01:55:31.000Z,1.35
2022-12-28T01:56:27.000Z,1.28
2022-12-28T01:57:30.000Z,1.31
2022-12-28T01:58:30.000Z,1.29
2022-12-28T01:59:31.000Z,1.26
2022-12-28T02:00:27.000Z,1.33
2022-12-28T02:01:27.000Z,1.27
2022-12-28T02:02:28.000Z,1.24
2022-12-28T02:03:31.000Z,1.29
2022-12-28T02:04:28.000Z,1.24
2022-12-28T02:05:32.000Z,1.23
2022-12-28T02:06:29.000Z,1.27
2022-12-28T02:07:40.000Z,1.23
2022-12-28T02:08:38.000Z,1.29
2022-12-28T02:09:34.000Z,1.30
2022-12-28T02:10:28.000Z,1.33
2022-12-28T02:11:28.000Z,1.29
2022-12-28T02:12:28.000Z,1.31
2022-12-28T02:13:28.000Z,1.29
2022-12-28T02:14:28.000Z,1.25
2022-12-28T02:15:27.000Z,1.30
2022-12-28T02:16:27.000Z,1.27
2022-12-28T02:17:28.000Z,1.28
2022-12-28T02:18:27.000Z,1.28
2022-12-28T02:19:39.000Z,1.30
2022-12-28T02:20:38.000Z,1.28
2022-12-28T02:21:37.000Z,1.29
2022-12-28T02:22:37.000Z,1.28
2022-12-28T02:23:37.000Z,1.31
2022-12-28T02:24:38.000Z,1.32
2022-12-28T02:25:42.000Z,1.31
2022-12-28T02:26:43.000Z,1.35
2022-12-28T02:27:42.000Z,1.35
2022-12-28T02:28:48.000Z,1.34
2022-12-28T02:29:41.000Z,1.31
2022-12-28T02:30:32.000Z,1.28
2022-12-28T02:31:35.000Z,1.29
2022-12-28T02:32:58.000Z,1.32
2022-12-28T02:33:41.000Z,1.31
2022-12-28T02:34:46.000Z,1.31
2022-12-28T02:35:51.000Z,1.30
2022-12-28T02:36:36.000Z,1.33
2022-12-28T02:37:39.000Z,1.31
2022-12-28T02:38:37.000Z,1.31
2022-12-28T02:39:38.000Z,1.30
2022-12-28T02:40:44.000Z,1.31
2022-12-28T02:41:29.000Z,1.29
2022-12-28T02:42:28.000Z,1.30
2022-12-28T02:43:27.000Z,1.32
2022-12-28T02:44:34.000Z,1.39
2022-12-28T02:45:50.000Z,1.39
2022-12-28T02:46:33.000Z,1.40
2022-12-28T02:47:32.000Z,1.39
2022-12-28T02:48:41.000Z,1.43
2022-12-28T02:49:32.000Z,1.43
2022-12-28T02:50:45.000Z,1.44
2022-12-28T02:51:46.000Z,1.47
2022-12-28T02:52:43.000Z,1.51
2022-12-28T02:53:44.000Z,1.49
2022-12-28T02:54:42.000Z,1.48
2022-12-28T02:55:48.000Z,1.50
2022-12-28T02:56:49.000Z,1.52
2022-12-28T02:57:50.000Z,1.50
2022-12-28T02:58:37.000Z,1.48
2022-12-28T02:59:51.000Z,1.47
2022-12-28T03:00:38.000Z,1.47
2022-12-28T03:01:40.000Z,1.52
2022-12-28T03:02:58.000Z,1.49
2022-12-28T03:03:43.000Z,1.50
2022-12-28T03:04:37.000Z,1.49
2022-12-28T03:05:56.000Z,1.48
2022-12-28T03:06:43.000Z,1.49
2022-12-28T03:07:45.000Z,1.53
2022-12-28T03:08:40.000Z,1.51
2022-12-28T03:09:39.000Z,1.51
2022-12-28T03:10:41.000Z,1.52
2022-12-28T03:11:37.000Z,1.47
2022-12-28T03:12:33.000Z,1.49
2022-12-28T03:13:55.000Z,1.50
2022-12-28T03:14:38.000Z,1.53
2022-12-28T03:15:35.000Z,1.51
2022-12-28T03:16:35.000Z,1.45
2022-12-28T03:17:36.000Z,1.49
2022-12-28T03:18:34.000Z,1.48
2022-12-28T03:19:41.000Z,1.50
2022-12-28T03:20:32.000Z,1.49
2022-12-28T03:21:34.000Z,1.50
2022-12-28T03:22:35.000Z,1.49
2022-12-28T03:23:35.000Z,1.50
2022-12-28T03:24:35.000Z,1.48
2022-12-28T03:25:38.000Z,1.47
2022-12-28T03:26:36.000Z,1.46
2022-12-28T03:27:33.000Z,1.50
2022-12-28T03:28:36.000Z,1.51
2022-12-28T03:29:44.000Z,1.58
2022-12-28T03:30:38.000Z,1.68
2022-12-28T03:31:29.000Z,1.64
2022-12-28T03:32:28.000Z,1.66
2022-12-28T03:33:27.000Z,1.66
2022-12-28T03:34:27.000Z,1.66
2022-12-28T03:35:42.000Z,1.68
2022-12-28T03:36:37.000Z,1.69
2022-12-28T03:37:36.000Z,1.72
2022-12-28T03:38:32.000Z,1.71
2022-12-28T03:39:34.000Z,1.68
2022-12-28T03:40:38.000Z,1.70
2022-12-28T03:41:37.000Z,1.71
2022-12-28T03:42:42.000Z,1.68
2022-12-28T03:43:43.000Z,1.67
2022-12-28T03:44:33.000Z,1.69
2022-12-28T03:45:35.000Z,1.70
2022-12-28T03:46:38.000Z,1.72
2022-12-28T03:47:30.000Z,1.68
2022-12-28T03:48:30.000Z,1.68
2022-12-28T03:49:27.000Z,1.73
2022-12-28T03:50:29.000Z,1.72
2022-12-28T03:51:30.000Z,1.70
2022-12-28T03:52:27.000Z,1.75
2022-12-28T03:53:35.000Z,1.72
2022-12-28T03:54:27.000Z,1.68
2022-12-28T03:55:28.000Z,1.69
2022-12-28T03:56:27.000Z,1.69
2022-12-28T03:57:27.000Z,1.69
2022-12-28T03:58:27.000Z,1.68
2022-12-28T03:59:27.000Z,1.70
2022-12-28T04:00:27.000Z,1.67
2022-12-28T04:01:27.000Z,1.68
2022-12-28T04:02:27.000Z,1.63
2022-12-28T04:03:27.000Z,1.64
2022-12-28T04:04:27.000Z,1.65
2022-12-28T04:05:28.000Z,1.64
2022-12-28T04:06:28.000Z,1.63
2022-12-28T04:07:28.000Z,1.65
2022-12-28T04:08:28.000Z,1.68
2022-12-28T04:09:31.000Z,1.67
2022-12-28T04:10:28.000Z,1.68
2022-12-28T04:11:28.000Z,1.68
2022-12-28T04:12:28.000Z,1.65
2022-12-28T04:13:29.000Z,1.66
2022-12-28T04:14:28.000Z,1.61
2022-12-28T04:15:28.000Z,1.59
2022-12-28T04:16:28.000Z,1.64
2022-12-28T04:17:28.000Z,1.62
2022-12-28T04:18:29.000Z,1.66
2022-12-28T04:19:28.000Z,1.67
2022-12-28T04:20:28.000Z,1.68
2022-12-28T04:21:28.000Z,1.67
2022-12-28T04:22:28.000Z,1.66
2022-12-28T04:23:29.000Z,1.64
2022-12-28T04:24:28.000Z,1.66
2022-12-28T04:25:27.000Z,1.63
2022-12-28T04:26:28.000Z,1.63
2022-12-28T04:27:28.000Z,1.64
2022-12-28T04:28:28.000Z,1.61
2022-12-28T04:29:28.000Z,1.70
2022-12-28T04:30:28.000Z,1.61
2022-12-28T04:31:28.000Z,1.64
2022-12-28T04:32:28.000Z,1.60
2022-12-28T04:33:31.000Z,1.66
2022-12-28T04:34:28.000Z,1.66
2022-12-28T04:35:27.000Z,1.63
2022-12-28T04:36:27.000Z,1.68
2022-12-28T04:37:27.000Z,1.63
2022-12-28T04:38:27.000Z,1.66
2022-12-28T04:39:27.000Z,1.71
2022-12-28T04:40:27.000Z,1.68
2022-12-28T04:41:27.000Z,1.67
2022-12-28T04:42:27.000Z,1.67
2022-12-28T04:43:30.000Z,1.69
2022-12-28T04:44:27.000Z,1.73
2022-12-28T04:45:28.000Z,1.66
2022-12-28T04:46:27.000Z,1.68
2022-12-28T04:47:27.000Z,1.69
2022-12-28T04:48:28.000Z,1.70
2022-12-28T04:49:27.000Z,1.71
2022-12-28T04:50:28.000Z,1.67
2022-12-28T04:51:28.000Z,1.65
2022-12-28T04:52:27.000Z,1.68
2022-12-28T04:53:27.000Z,1.70
2022-12-28T04:54:27.000Z,1.71
2022-12-28T04:55:27.000Z,1.72
2022-12-28T04:56:27.000Z,1.76
2022-12-28T04:57:28.000Z,1.73
2022-12-28T04:58:28.000Z,1.71
2022-12-28T04:59:27.000Z,1.73
2022-12-28T05:00:27.000Z,1.72
2022-12-28T05:01:27.000Z,1.72
2022-12-28T05:02:27.000Z,1.71
2022-12-28T05:03:27.000Z,1.74
2022-12-28T05:04:27.000Z,1.72
2022-12-28T05:05:28.000Z,1.72
2022-12-28T05:06:28.000Z,1.76
2022-12-28T05:07:27.000Z,1.75
2022-12-28T05:08:30.000Z,1.71
2022-12-28T05:09:27.000Z,1.74
2022-12-28T05:10:28.000Z,1.74
2022-12-28T05:11:28.000Z,1.77
2022-12-28T05:12:27.000Z,1.74
2022-12-28T05:13:27.000Z,1.75
2022-12-28T05:14:27.000Z,1.75
2022-12-28T05:15:27.000Z,1.81
2022-12-28T05:16:28.000Z,1.79
2022-12-28T05:17:27.000Z,1.79
2022-12-28T05:18:28.000Z,1.79
2022-12-28T05:19:27.000Z,1.81
2022-12-28T05:20:27.000Z,1.77
2022-12-28T05:21:28.000Z,1.76
2022-12-28T05:22:27.000Z,1.76
2022-12-28T05:23:28.000Z,1.75
2022-12-28T05:24:27.000Z,1.80
2022-12-28T05:25:27.000Z,1.76
2022-12-28T05:26:28.000Z,1.76
2022-12-28T05:27:27.000Z,1.77
2022-12-28T05:28:27.000Z,1.77
2022-12-28T05:29:27.000Z,1.78
2022-12-28T05:30:27.000Z,1.75
2022-12-28T05:31:27.000Z,1.80
2022-12-28T05:32:27.000Z,1.78
2022-12-28T05:33:29.000Z,1.82
2022-12-28T05:34:27.000Z,1.82
2022-12-28T05:35:27.000Z,1.86
2022-12-28T05:36:27.000Z,1.83
2022-12-28T05:37:27.000Z,1.80
2022-12-28T05:38:27.000Z,1.82
2022-12-28T05:39:28.000Z,1.81
2022-12-28T05:40:28.000Z,1.87
2022-12-28T05:41:29.000Z,1.88
2022-12-28T05:42:27.000Z,1.91
2022-12-28T05:43:29.000Z,1.87
2022-12-28T05:44:29.000Z,1.88
2022-12-28T05:45:27.000Z,1.89
2022-12-28T05:46:30.000Z,1.86
2022-12-28T05:47:27.000Z,1.87
2022-12-28T05:48:30.000Z,1.81
2022-12-28T05:49:27.000Z,1.86
2022-12-28T05:50:27.000Z,1.87
2022-12-28T05:51:30.000Z,1.85
2022-12-28T05:52:29.000Z,1.86
2022-12-28T05:53:29.000Z,1.95
2022-12-28T05:54:27.000Z,1.95
2022-12-28T05:55:27.000Z,1.93
2022-12-28T05:56:28.000Z,1.95
2022-12-28T05:57:27.000Z,2.01
2022-12-28T05:58:28.000Z,1.98
2022-12-28T05:59:27.000Z,1.96
2022-12-28T06:00:27.000Z,1.97
2022-12-28T06:01:31.000Z,2.02
2022-12-28T06:02:28.000Z,1.99
2022-12-28T06:03:28.000Z,2.03
2022-12-28T06:04:27.000Z,1.99
2022-12-28T06:05:27.000Z,2.02
2022-12-28T06:06:29.000Z,2.02
2022-12-28T06:07:27.000Z,2.07
2022-12-28T06:08:27.000Z,2.02
2022-12-28T06:09:27.000Z,2.05
2022-12-28T06:10:27.000Z,2.02
2022-12-28T06:11:28.000Z,2.07
2022-12-28T06:12:27.000Z,2.04
2022-12-28T06:13:28.000Z,2.07
2022-12-28T06:14:27.000Z,2.07
2022-12-28T06:15:27.000Z,2.09
2022-12-28T06:16:33.000Z,2.09
2022-12-28T06:17:27.000Z,2.06
2022-12-28T06:18:27.000Z,2.06
2022-12-28T06:19:27.000Z,2.04
2022-12-28T06:20:27.000Z,2.01
2022-12-28T06:21:29.000Z,2.00
2022-12-28T06:22:27.000Z,2.00
2022-12-28T06:23:27.000Z,2.06
2022-12-28T06:24:27.000Z,2.07
2022-12-28T06:25:27.000Z,2.08
2022-12-28T06:26:29.000Z,2.11
2022-12-28T06:27:27.000Z,2.07
2022-12-28T06:28:27.000Z,2.06
2022-12-28T06:29:27.000Z,2.11
2022-12-28T06:30:27.000Z,2.07
2022-12-28T06:31:33.000Z,2.12
2022-12-28T06:32:27.000Z,2.11
2022-12-28T06:33:28.000Z,2.13
2022-12-28T06:34:27.000Z,2.10
2022-12-28T06:35:27.000Z,2.12
2022-12-28T06:36:30.000Z,2.08
2022-12-28T06:37:27.000Z,2.07
2022-12-28T06:38:30.000Z,2.07
2022-12-28T06:39:27.000Z,2.08
2022-12-28T06:40:27.000Z,2.14
2022-12-28T06:41:28.000Z,2.13
2022-12-28T06:42:27.000Z,2.09
2022-12-28T06:43:30.000Z,2.11
2022-12-28T06:44:27.000Z,2.08
2022-12-28T06:45:27.000Z,2.05
2022-12-28T06:46:28.000Z,2.05
2022-12-28T06:47:27.000Z,2.06
2022-12-28T06:48:28.000Z,2.12
2022-12-28T06:49:27.000Z,2.12
2022-12-28T06:50:27.000Z,2.12
2022-12-28T06:51:31.000Z,2.12
2022-12-28T06:52:27.000Z,2.08
2022-12-28T06:53:30.000Z,2.07
2022-12-28T06:54:27.000Z,2.06
2022-12-28T06:55:27.000Z,2.07
2022-12-28T06:56:29.000Z,2.07
2022-12-28T06:57:27.000Z,2.09
2022-12-28T06:58:28.000Z,2.04
2022-12-28T06:59:27.000Z,2.07
2022-12-28T07:00:27.000Z,2.06
2022-12-28T07:01:30.000Z,2.07
2022-12-28T07:02:27.000Z,2.11
2022-12-28T07:03:27.000Z,2.13
2022-12-28T07:04:27.000Z,2.11
2022-12-28T07:05:27.000Z,2.07
2022-12-28T07:06:28.000Z,2.07
2022-12-28T07:07:27.000Z,2.09
2022-12-28T07:08:28.000Z,2.10
2022-12-28T07:09:27.000Z,2.09
2022-12-28T07:10:27.000Z,2.08
2022-12-28T07:11:28.000Z,2.11
2022-12-28T07:12:27.000Z,2.12
2022-12-28T07:13:27.000Z,2.08
2022-12-28T07:14:27.000Z,2.09
2022-12-28T07:15:28.000Z,2.19
2022-12-28T07:16:28.000Z,2.15
2022-12-28T07:17:27.000Z,2.15
2022-12-28T07:18:27.000Z,2.12
2022-12-28T07:19:27.000Z,2.14
2022-12-28T07:20:27.000Z,2.13
2022-12-28T07:21:31.000Z,2.14
2022-12-28T07:22:27.000Z,2.15
2022-12-28T07:23:30.000Z,2.11
2022-12-28T07:24:28.000Z,2.13
2022-12-28T07:25:27.000Z,2.11
2022-12-28T07:26:29.000Z,2.10
2022-12-28T07:27:27.000Z,2.14
2022-12-28T07:28:27.000Z,2.22
2022-12-28T07:29:27.000Z,2.20
2022-12-28T07:30:27.000Z,2.17
2022-12-28T07:31:31.000Z,2.13
2022-12-28T07:32:27.000Z,2.19
2022-12-28T07:33:27.000Z,2.17
2022-12-28T07:34:27.000Z,2.18
2022-12-28T07:35:27.000Z,2.16
2022-12-28T07:36:29.000Z,2.18
2022-12-28T07:37:27.000Z,2.17
2022-12-28T07:38:27.000Z,2.20
2022-12-28T07:39:26.000Z,2.19
2022-12-28T07:40:27.000Z,2.16
2022-12-28T07:41:29.000Z,2.22
2022-12-28T07:42:27.000Z,2.21
2022-12-28T07:43:27.000Z,2.25
2022-12-28T07:44:26.000Z,2.24
2022-12-28T07:45:26.000Z,2.21
2022-12-28T07:46:29.000Z,2.20
2022-12-28T07:47:27.000Z,2.22
2022-12-28T07:48:28.000Z,2.25
2022-12-28T07:49:27.000Z,2.25
2022-12-28T07:50:27.000Z,2.25
2022-12-28T07:51:29.000Z,2.28
2022-12-28T07:52:26.000Z,2.27
2022-12-28T07:53:27.000Z,2.29
2022-12-28T07:54:27.000Z,2.29
2022-12-28T07:55:29.000Z,2.27
2022-12-28T07:56:28.000Z,2.31
2022-12-28T07:57:26.000Z,2.35
2022-12-28T07:58:26.000Z,2.31
2022-12-28T07:59:27.000Z,2.31
2022-12-28T08:00:26.000Z,2.34
2022-12-28T08:01:29.000Z,2.33
2022-12-28T08:02:27.000Z,2.35
2022-12-28T08:03:26.000Z,2.34
2022-12-28T08:04:27.000Z,2.38
2022-12-28T08:05:27.000Z,2.45
2022-12-28T08:06:28.000Z,2.43
2022-12-28T08:07:26.000Z,2.44
2022-12-28T08:08:27.000Z,2.45
2022-12-28T08:09:26.000Z,2.52
2022-12-28T08:10:26.000Z,2.48
2022-12-28T08:11:31.000Z,2.53
2022-12-28T08:12:26.000Z,2.48
2022-12-28T08:13:29.000Z,2.54
2022-12-28T08:14:27.000Z,2.48
2022-12-28T08:15:27.000Z,2.48
2022-12-28T08:16:30.000Z,2.53
2022-12-28T08:17:27.000Z,2.55
2022-12-28T08:18:27.000Z,2.63
2022-12-28T08:19:26.000Z,2.79
2022-12-28T08:20:27.000Z,2.76
2022-12-28T08:21:33.000Z,2.78
2022-12-28T08:22:26.000Z,2.76
2022-12-28T08:23:28.000Z,2.87
2022-12-28T08:24:26.000Z,2.95
2022-12-28T08:25:26.000Z,2.89
2022-12-28T08:26:32.000Z,2.84
2022-12-28T08:27:26.000Z,2.88
2022-12-28T08:28:26.000Z,2.91
2022-12-28T08:29:27.000Z,2.92
2022-12-28T08:30:26.000Z,2.87
2022-12-28T08:31:30.000Z,2.91
2022-12-28T08:32:26.000Z,2.89
2022-12-28T08:33:26.000Z,2.87
2022-12-28T08:34:26.000Z,2.92
2022-12-28T08:35:26.000Z,2.90
2022-12-28T08:36:27.000Z,2.88
2022-12-28T08:37:26.000Z,2.87
2022-12-28T08:38:27.000Z,2.88
2022-12-28T08:39:27.000Z,2.92
2022-12-28T08:40:29.000Z,2.91
2022-12-28T08:41:28.000Z,2.92
2022-12-28T08:42:27.000Z,2.91
2022-12-28T08:43:29.000Z,2.97
2022-12-28T08:44:27.000Z,2.98
2022-12-28T08:45:27.000Z,3.01
2022-12-28T08:46:30.000Z,3.00
2022-12-28T08:47:27.000Z,3.00
2022-12-28T08:48:27.000Z,3.04
2022-12-28T08:49:27.000Z,3.04
2022-12-28T08:50:27.000Z,3.04
2022-12-28T08:51:33.000Z,3.06
2022-12-28T08:52:27.000Z,3.09
2022-12-28T08:53:28.000Z,3.10
2022-12-28T08:54:27.000Z,3.10
2022-12-28T08:55:27.000Z,3.10
2022-12-28T08:56:30.000Z,3.11
2022-12-28T08:57:27.000Z,3.12
2022-12-28T08:58:27.000Z,3.08
2022-12-28T08:59:27.000Z,3.05
2022-12-28T09:00:27.000Z,3.11
2022-12-28T09:01:30.000Z,3.13
2022-12-28T09:02:27.000Z,3.16
2022-12-28T09:03:27.000Z,3.17
2022-12-28T09:04:28.000Z,3.17
2022-12-28T09:05:27.000Z,3.24
2022-12-28T09:06:34.000Z,3.22
2022-12-28T09:07:27.000Z,3.27
2022-12-28T09:08:27.000Z,3.25
2022-12-28T09:09:27.000Z,3.25
2022-12-28T09:10:26.000Z,3.24
2022-12-28T09:11:27.000Z,3.25
2022-12-28T09:12:27.000Z,3.27
2022-12-28T09:13:27.000Z,3.29
2022-12-28T09:14:26.000Z,3.29
2022-12-28T09:15:26.000Z,3.29
2022-12-28T09:16:27.000Z,3.34
2022-12-28T09:17:27.000Z,3.30
2022-12-28T09:18:27.000Z,3.31
2022-12-28T09:19:27.000Z,3.35
2022-12-28T09:20:27.000Z,3.34
2022-12-28T09:21:31.000Z,3.34
2022-12-28T09:22:29.000Z,3.34
2022-12-28T09:23:27.000Z,3.37
2022-12-28T09:24:26.000Z,3.40
2022-12-28T09:25:26.000Z,3.40
2022-12-28T09:26:30.000Z,3.43
2022-12-28T09:27:27.000Z,3.45
2022-12-28T09:28:27.000Z,3.45
2022-12-28T09:29:27.000Z,3.46
2022-12-28T09:30:27.000Z,3.48
2022-12-28T09:31:29.000Z,3.49
2022-12-28T09:32:27.000Z,3.47
2022-12-28T09:33:33.000Z,3.47
2022-12-28T09:34:27.000Z,3.50
2022-12-28T09:35:27.000Z,3.53
2022-12-28T09:36:30.000Z,3.51
2022-12-28T09:37:27.000Z,3.52
2022-12-28T09:38:29.000Z,3.54
2022-12-28T09:39:27.000Z,3.54
2022-12-28T09:40:27.000Z,3.54
2022-12-28T09:41:31.000Z,3.59
2022-12-28T09:42:29.000Z,3.61
2022-12-28T09:43:27.000Z,3.66
2022-12-28T09:44:38.000Z,3.64
2022-12-28T09:45:28.000Z,3.65
2022-12-28T09:46:30.000Z,3.68
2022-12-28T09:47:36.000Z,3.71
2022-12-28T09:48:30.000Z,3.69
2022-12-28T09:49:38.000Z,3.71
2022-12-28T09:50:32.000Z,3.68
2022-12-28T09:51:33.000Z,3.71
2022-12-28T09:52:32.000Z,3.70
2022-12-28T09:53:33.000Z,3.72
2022-12-28T09:54:27.000Z,3.74
2022-12-28T09:55:28.000Z,3.69
2022-12-28T09:56:33.000Z,3.70
2022-12-28T09:57:36.000Z,3.74
2022-12-28T09:58:29.000Z,3.71
2022-12-28T09:59:32.000Z,3.72
2022-12-28T10:00:37.000Z,3.73
2022-12-28T10:01:27.000Z,3.77
2022-12-28T10:02:33.000Z,3.78
2022-12-28T10:03:45.000Z,3.82
2022-12-28T10:04:27.000Z,3.84
2022-12-28T10:05:28.000Z,3.86
2022-12-28T10:06:30.000Z,3.85
2022-12-28T10:07:27.000Z,3.86
2022-12-28T10:08:28.000Z,3.84
2022-12-28T10:09:31.000Z,3.84
2022-12-28T10:10:28.000Z,3.83
2022-12-28T10:11:34.000Z,3.86
2022-12-28T10:12:28.000Z,3.87
2022-12-28T10:13:35.000Z,3.88
2022-12-28T10:14:29.000Z,3.90
2022-12-28T10:15:27.000Z,3.95
2022-12-28T10:16:30.000Z,3.96
2022-12-28T10:17:28.000Z,4.00
2022-12-28T10:18:27.000Z,3.95
2022-12-28T10:19:28.000Z,3.92
2022-12-28T10:20:27.000Z,3.93
2022-12-28T10:21:32.000Z,3.89
2022-12-28T10:22:37.000Z,3.91
2022-12-28T10:23:32.000Z,3.95
2022-12-28T10:24:28.000Z,3.93
2022-12-28T10:25:27.000Z,3.95
2022-12-28T10:26:27.000Z,4.02
2022-12-28T10:27:30.000Z,3.92
2022-12-28T10:28:36.000Z,3.97
2022-12-28T10:29:31.000Z,3.95
2022-12-28T10:30:27.000Z,4.05
2022-12-28T10:31:36.000Z,4.05
2022-12-28T10:32:46.000Z,4.10
2022-12-28T10:33:27.000Z,4.00
2022-12-28T10:34:29.000Z,4.08
2022-12-28T10:35:39.000Z,4.03
2022-12-28T10:36:32.000Z,4.06
2022-12-28T10:37:35.000Z,4.07
2022-12-28T10:38:30.000Z,4.03
2022-12-28T10:39:29.000Z,4.04
2022-12-28T10:40:31.000Z,3.98
2022-12-28T10:41:34.000Z,4.00
2022-12-28T10:42:35.000Z,3.96
2022-12-28T10:43:30.000Z,3.94
2022-12-28T10:44:32.000Z,4.01
2022-12-28T10:45:37.000Z,4.04
2022-12-28T10:46:27.000Z,4.08
2022-12-28T10:47:32.000Z,4.09
2022-12-28T10:48:36.000Z,4.12
2022-12-28T10:49:33.000Z,4.11
2022-12-28T10:50:49.000Z,4.16
2022-12-28T10:51:28.000Z,4.12
2022-12-28T10:52:27.000Z,4.19
2022-12-28T10:53:38.000Z,4.22
2022-12-28T10:54:30.000Z,4.22
2022-12-28T10:55:30.000Z,4.22
2022-12-28T10:56:29.000Z,4.25
2022-12-28T10:57:29.000Z,4.24
2022-12-28T10:58:27.000Z,4.31
2022-12-28T10:59:29.000Z,4.28
2022-12-28T11:00:27.000Z,4.33
2022-12-28T11:01:28.000Z,4.30
2022-12-28T11:02:29.000Z,4.34
2022-12-28T11:03:31.000Z,4.33
2022-12-28T11:04:27.000Z,4.31
2022-12-28T11:05:27.000Z,4.38
2022-12-28T11:06:30.000Z,4.29
2022-12-28T11:07:37.000Z,4.31
2022-12-28T11:08:27.000Z,4.35
2022-12-28T11:09:32.000Z,4.35
2022-12-28T11:10:28.000Z,4.35
2022-12-28T11:11:27.000Z,4.36
2022-12-28T11:12:30.000Z,4.38
2022-12-28T11:13:27.000Z,4.44
2022-12-28T11:14:35.000Z,4.46
2022-12-28T11:15:29.000Z,4.47
2022-12-28T11:16:31.000Z,4.39
2022-12-28T11:17:33.000Z,4.47
2022-12-28T11:18:27.000Z,4.44
2022-12-28T11:19:27.000Z,4.42
2022-12-28T11:20:34.000Z,4.44
2022-12-28T11:21:27.000Z,4.48
2022-12-28T11:22:28.000Z,4.46
2022-12-28T11:23:30.000Z,4.41
2022-12-28T11:24:27.000Z,4.49
2022-12-28T11:25:30.000Z,4.52
2022-12-28T11:26:27.000Z,4.49
2022-12-28T11:27:27.000Z,4.50
2022-12-28T11:28:27.000Z,4.52
2022-12-28T11:29:27.000Z,4.52
2022-12-28T11:30:28.000Z,4.56
2022-12-28T11:31:36.000Z,4.59
2022-12-28T11:32:36.000Z,4.62
2022-12-28T11:33:37.000Z,4.60
2022-12-28T11:34:29.000Z,4.66
2022-12-28T11:35:34.000Z,4.69
2022-12-28T11:36:30.000Z,4.74
2022-12-28T11:37:27.000Z,4.62
2022-12-28T11:38:50.000Z,4.63
2022-12-28T11:39:32.000Z,4.75
2022-12-28T11:40:37.000Z,4.70
2022-12-28T11:41:49.000Z,4.64
2022-12-28T11:42:50.000Z,4.64
2022-12-28T11:43:38.000Z,4.60
2022-12-28T11:44:36.000Z,4.69
2022-12-28T11:45:36.000Z,4.73
2022-12-28T11:46:56.000Z,4.70
2022-12-28T11:47:32.000Z,4.68
2022-12-28T11:48:36.000Z,4.70
2022-12-28T11:49:33.000Z,4.74
2022-12-28T11:50:46.000Z,4.71
2022-12-28T11:51:34.000Z,4.77
2022-12-28T11:52:43.000Z,4.82
2022-12-28T11:53:49.000Z,4.83
2022-12-28T11:54:35.000Z,4.85
2022-12-28T11:55:35.000Z,4.84
2022-12-28T11:56:36.000Z,4.77
2022-12-28T11:57:33.000Z,4.74
2022-12-28T11:58:43.000Z,4.80
2022-12-28T11:59:32.000Z,4.86
2022-12-28T12:00:36.000Z,4.84
2022-12-28T12:01:41.000Z,4.86
2022-12-28T12:02:37.000Z,4.88
2022-12-28T12:03:36.000Z,4.91
2022-12-28T12:04:39.000Z,4.95
2022-12-28T12:05:49.000Z,4.93
2022-12-28T12:06:36.000Z,4.84
2022-12-28T12:07:45.000Z,4.88
2022-12-28T12:08:47.000Z,4.91
2022-12-28T12:09:46.000Z,4.93
2022-12-28T12:10:30.000Z,4.96
2022-12-28T12:11:28.000Z,4.92
2022-12-28T12:12:45.000Z,4.90
2022-12-28T12:13:42.000Z,4.82
2022-12-28T12:14:44.000Z,4.87
2022-12-28T12:15:35.000Z,4.92
2022-12-28T12:16:37.000Z,5.00
2022-12-28T12:17:50.000Z,4.91
2022-12-28T12:18:28.000Z,5.01
2022-12-28T12:19:32.000Z,4.99
2022-12-28T12:20:36.000Z,5.02
2022-12-28T12:21:37.000Z,5.08
2022-12-28T12:22:38.000Z,5.12
2022-12-28T12:23:50.000Z,5.15
2022-12-28T12:24:33.000Z,5.20
2022-12-28T12:25:35.000Z,5.29
2022-12-28T12:26:38.000Z,5.26
2022-12-28T12:27:37.000Z,5.19
2022-12-28T12:28:49.000Z,5.14
2022-12-28T12:29:37.000Z,4.98
2022-12-28T12:30:29.000Z,5.04
2022-12-28T12:31:30.000Z,5.09
2022-12-28T12:32:36.000Z,5.05
2022-12-28T12:33:33.000Z,5.20
2022-12-28T12:34:37.000Z,5.15
2022-12-28T12:35:33.000Z,5.22
2022-12-28T12:36:36.000Z,5.23
2022-12-28T12:37:37.000Z,5.19
2022-12-28T12:38:47.000Z,5.17
2022-12-28T12:39:36.000Z,5.21
2022-12-28T12:40:36.000Z,5.11
2022-12-28T12:41:49.000Z,5.06
2022-12-28T12:42:47.000Z,5.12
2022-12-28T12:43:47.000Z,5.21
2022-12-28T12:44:36.000Z,5.12
2022-12-28T12:45:36.000Z,5.18
2022-12-28T12:46:43.000Z,5.16
2022-12-28T12:47:36.000Z,5.18
2022-12-28T12:48:38.000Z,5.18
2022-12-28T12:49:40.000Z,5.14
2022-12-28T12:50:47.000Z,5.11
2022-12-28T12:51:52.000Z,5.17
2022-12-28T12:52:38.000Z,5.16
2022-12-28T12:53:49.000Z,5.15
2022-12-28T12:54:57.000Z,5.16
2022-12-28T12:55:54.000Z,5.16
2022-12-28T12:56:37.000Z,5.21
2022-12-28T12:57:41.000Z,5.14
2022-12-28T12:58:43.000Z,5.19
2022-12-28T12:59:36.000Z,5.08
2022-12-28T13:00:39.000Z,5.13
2022-12-28T13:01:37.000Z,5.16
2022-12-28T13:02:46.000Z,5.06
2022-12-28T13:03:36.000Z,5.05
2022-12-28T13:04:31.000Z,5.12
2022-12-28T13:05:28.000Z,5.13
2022-12-28T13:06:28.000Z,5.12
2022-12-28T13:07:27.000Z,5.06
2022-12-28T13:08:34.000Z,5.16
2022-12-28T13:09:28.000Z,5.17
2022-12-28T13:10:43.000Z,5.13
2022-12-28T13:11:28.000Z,5.19
2022-12-28T13:12:27.000Z,5.20
2022-12-28T13:13:35.000Z,5.20
2022-12-28T13:14:28.000Z,5.14
2022-12-28T13:15:28.000Z,5.05
2022-12-28T13:16:29.000Z,5.16
2022-12-28T13:17:28.000Z,5.07
2022-12-28T13:18:27.000Z,5.05